EGPO - Stornoway, United Kingdom
Distance from station: E 3km
Updated: Sat, 02-Jul-2022 2:20am BST
Light rain, Clear
Light rain, Clear
 Wind from calm
Wind: Calm
Temperature: 11°C
Dew Point: 10°C
Humidity: 94%
Barometer: 1009 hPa
Summary: Light Rain
Clouds: Clear
Visibility: 6 miles , 10 km
2022/07/02 01:20 EGPO 020120Z AUTO 00000KT 9999 -RA NCD 11/10 Q1009
EGPL - Benbecula Island, United Kingdom
Distance from station: SW 102km
Updated: Sat, 02-Jul-2022 2:20am BST
Light rain, Few clouds
Light rain, Few clouds
 Wind from ENE
Wind: ENE 6 mph , 9 km/h
Temperature: 11°C
Dew Point: 10°C
Humidity: 94%
Barometer: 1009 hPa
Summary: Light Rain
Clouds: Few Clouds
Visibility: 6 miles , 10 km
Cloud details: Few Clouds 1372 m
2022/07/02 01:20 EGPL 020120Z AUTO 06005KT 9999 -RA FEW045/// 11/10 Q1009
EGQA - Tain Range (saws, United Kingdom
Distance from station: ESE 149km
Updated: Fri, 01-Jul-2022 10:50am BST
NOT Current
Mostly Cloudy
Mostly Cloudy
 Wind from NE
Wind: NE 7 mph , 11 km/h
Clouds: Mostly Cloudy
Visibility: 6 miles , 10 km
Cloud details: Few Clouds 366 m
Mostly Cloudy 5791 m
2022/07/01 09:50 EGQA 010950Z 04006KT 9999 FEW012 BKN190 17/// Q1011 RMK BLU
 
EGPE - Inverness/Dalcro, United Kingdom
Distance from station: ESE 158km
Updated: Sat, 02-Jul-2022 2:20am BST
Light rain, Partly cloudy
Light rain, Partly cloudy
 Wind from NNE
Wind: NNE 2 mph , 4 km/h
Temperature: 11°C
Dew Point: 11°C
Humidity: 100%
Barometer: 1009 hPa
Summary: Light Rain
Clouds: Partly Cloudy
Visibility: 6 miles , 10 km
Cloud details: Partly Cloudy 1067 m
2022/07/02 01:20 EGPE 020120Z 03002KT 9999 -RA SCT035 11/11 Q1009
EGQS - Lossiemouth Raf, United Kingdom
Distance from station: ESE 188km
Updated: Sat, 02-Jul-2022 2:32am BST
Shallow fog, Mostly cloudy
Shallow fog, Mostly cloudy
 Wind from SE
Wind: SE 5 mph , 7 km/h
Temperature: 12°C
Dew Point: 11°C
Humidity: 94%
Barometer: 1009 hPa
Summary: Shallow Fog
Clouds: Mostly Cloudy
Visibility: 6 miles , 10 km
Cloud details: Few Clouds 91 m
Mostly Cloudy 3048 m
2022/07/02 01:32 EGQS 020132Z 13004KT 9999 MIFG FEW003 BKN100 12/11 Q1009 RMK BLU
EGPU - Tiree Island, United Kingdom
Distance from station: S 193km
Updated: Sat, 02-Jul-2022 2:20am BST
Mostly Cloudy
Mostly Cloudy
 Wind from SE
Wind: SE 8 mph , 13 km/h
Temperature: 12°C
Dew Point: 12°C
Humidity: 100%
Barometer: 1008 hPa
Clouds: Mostly Cloudy
Visibility: 6 miles , 10 km
Cloud details: Few Clouds 152 m
Partly Cloudy 335 m
Mostly Cloudy 549 m
2022/07/02 01:20 EGPU 020120Z AUTO 13007KT 9999 FEW005/// SCT011/// BKN018/// 12/12 Q1008
 
EGPC - Wick, United Kingdom
Distance from station: E 195km
Updated: Sat, 02-Jul-2022 2:20am BST
Light rain, Overcast
Light rain, Overcast
 Wind from SSE
Wind: SSE 2 mph , 4 km/h
Temperature: 11°C
Dew Point: 11°C
Humidity: 100%
Barometer: 1009 hPa
Summary: Light Rain
Clouds: Overcast
Visibility: 6 miles , 10 km
Cloud details: Mostly Cloudy 122 m
Mostly Cloudy 305 m
Overcast 1097 m
2022/07/02 01:20 EGPC 020120Z AUTO 15002KT 9999 -RA BKN004/// BKN010/// OVC036/// 11/11 Q1009
EGEO - Oban Airport, United Kingdom
Distance from station: SSE 203km
Updated: Fri, 01-Jul-2022 5:20pm BST
NOT Current
Few Clouds
Few Clouds
 Wind from NW
Wind: NW 8 mph , 13 km/h
Temperature: 14°C
Dew Point: 11°C
Humidity: 82%
Barometer: 1010 hPa
Clouds: Few Clouds
Visibility: 6 miles , 10 km
Cloud details: Few Clouds 945 m
2022/07/01 16:20 EGEO 011620Z 31007KT 9999 FEW031 14/11 Q1010
EGPA - Kirkwall Airport, United Kingdom
Distance from station: ENE 218km
Updated: Sat, 02-Jul-2022 2:20am BST
Partly Cloudy
Partly Cloudy
 Wind from WSW
Wind: WSW 1 mph , 2 km/h
Temperature: 10°C
Dew Point: 9°C
Humidity: 94%
Barometer: 1009 hPa
Clouds: Partly Cloudy
Visibility: 6 miles , 10 km
Cloud details: Partly Cloudy 671 m
2022/07/02 01:20 EGPA 020120Z AUTO 25001KT 9999 SCT022/// 10/09 Q1009
 
EGPD - Aberdeen/Dyce, United Kingdom
Distance from station: ESE 271km
Updated: Sat, 02-Jul-2022 2:20am BST
Clear
Clear
 Wind from varies
Wind: varies 1 mph , 2 km/h
Temperature: 12°C
Dew Point: 10°C
Humidity: 88%
Barometer: 1010 hPa
Clouds: Clear
Visibility: 6 miles , 10 km
2022/07/02 01:20 EGPD 020120Z AUTO VRB01KT 9999 NCD 12/10 Q1010 NOSIG
EGPI - Islay/Port Ellen, United Kingdom
Distance from station: S 281km
Updated: Sat, 02-Jul-2022 2:20am BST
Mostly Cloudy
Mostly Cloudy
 Wind from W
Wind: W 6 mph , 9 km/h
Temperature: 12°C
Dew Point: 11°C
Humidity: 94%
Barometer: 1008 hPa
Clouds: Mostly Cloudy
Visibility: 6 miles , 10 km
Cloud details: Few Clouds 427 m
Mostly Cloudy 640 m
2022/07/02 01:20 EGPI 020120Z AUTO 27005KT 240V300 9999 FEW014/// BKN021/// 12/11 Q1008
EGPN - Dundee/Riverside, United Kingdom
Distance from station: SE 281km
Updated: Fri, 01-Jul-2022 8:50pm BST
NOT Current
Nearby showers, Few clouds
Nearby showers, Few clouds
 Wind from varies
Wind: varies 2 mph , 4 km/h
Temperature: 16°C
Dew Point: 13°C
Humidity: 83%
Barometer: 1010 hPa
Summary: Nearby Showers
Clouds: Few Clouds
Visibility: 6 miles , 10 km
Cloud details: Few Clouds 610 m
2022/07/01 19:50 EGPN 011950Z VRB02KT 9999 VCSH FEW020 16/13 Q1010
 
EGPF - Glasgow Airport, United Kingdom
Distance from station: SSE 286km
Updated: Sat, 02-Jul-2022 2:20am BST
Light rain, Thunderstorm
Light rain, Thunderstorm
 Wind from NE
Wind: NE 7 mph , 11 km/h
Temperature: 12°C
Dew Point: 12°C
Humidity: 100%
Barometer: 1009 hPa
Summary: Light Rain
Clouds: Thunderstorm
Visibility: 6 miles , 10 km
Cloud details: Partly Cloudy 183 m
Mostly Cloudy 488 m
2022/07/02 01:20 EGPF 020120Z AUTO 05006KT 9999 -RA SCT006/// BKN016/// //////CB 12/12 Q1009
EGQL - Leuchars Raf, United Kingdom
Distance from station: SE 293km
Updated: Sat, 02-Jul-2022 2:20am BST
Overcast
Overcast
 Wind from SSW
Wind: SSW 2 mph , 4 km/h
Temperature: 13°C
Dew Point: 9°C
Humidity: 77%
Barometer: 1009 hPa
Clouds: Overcast
Visibility: 6 miles , 10 km
Cloud details: Overcast 1829 m
2022/07/02 01:20 EGQL 020120Z AUTO 20002KT 9999 OVC060/// 13/09 Q1009
EGPH - Edinburgh Airpor, United Kingdom
Distance from station: SE 311km
Updated: Sat, 02-Jul-2022 2:20am BST
Light rain, Overcast
Light rain, Overcast
 Wind from NE
Wind: NE 3 mph , 6 km/h
Temperature: 12°C
Dew Point: 11°C
Humidity: 94%
Barometer: 1009 hPa
Summary: Light Rain
Clouds: Overcast
Visibility: 6 miles , 10 km
Cloud details: Mostly Cloudy 671 m
Overcast 1036 m
2022/07/02 01:20 EGPH 020120Z 04003KT 9999 -RA BKN022 OVC034 12/11 Q1009
 
EGEC - Campbeltown, United Kingdom
Distance from station: S 312km
Updated: Fri, 01-Jul-2022 6:20pm BST
NOT Current
Few Clouds
Few Clouds
 Wind from SSE
Wind: SSE 16 mph , 26 km/h
Temperature: 14°C
Dew Point: 12°C
Humidity: 88%
Barometer: 1009 hPa
Clouds: Few Clouds
Visibility: 6 miles , 10 km
Cloud details: Few Clouds 1280 m
2022/07/01 17:20 EGEC 011720Z 15014KT 9999 FEW042 14/12 Q1009
EGPK - Prestwick(Civ/Na, United Kingdom
Distance from station: SSE 321km
Updated: Sat, 02-Jul-2022 2:20am BST
Mostly Cloudy
Mostly Cloudy
 Wind from S
Wind: S 3 mph , 6 km/h
Temperature: 13°C
Dew Point: 12°C
Humidity: 94%
Barometer: 1009 hPa
Clouds: Mostly Cloudy
Visibility: 6 miles , 10 km
Cloud details: Few Clouds 549 m
Mostly Cloudy 914 m
2022/07/02 01:20 EGPK 020120Z 17003KT 140V200 9999 FEW018 BKN030 13/12 Q1009
EGPB - Sumburgh (cape), United Kingdom
Distance from station: NE 343km
Updated: Sat, 02-Jul-2022 2:20am BST
Overcast
Overcast
 Wind from W
Wind: W 8 mph , 13 km/h
Temperature: 11°C
Dew Point: 10°C
Humidity: 94%
Barometer: 1008 hPa
Clouds: Overcast
Visibility: 6 miles , 10 km
Cloud details: Mostly Cloudy 183 m
Overcast 427 m
2022/07/02 01:20 EGPB 020120Z AUTO 28007KT 9999 BKN006/// OVC014/// 11/10 Q1008

Metar display script from Saratoga-Weather.org